• Join FlightAware (Why Join?)
  • Login
  • US Flag 
09:00AM EDT


 

Airport Tracker/Info


-or-


 

Live Flight TrackerFlight Track Log ✈ AWE1262 ✈ 30-Jul-2013 ✈ KPHL - KMHT

Flight Track Log - Related Links

Times and Time Zones

All times are in EDT time to prevent confusion due to time zone crossing. See the AWE1262 flight status page for this flight to view local times or setup timezone preferences in your user account.

Time Position Orientation Groundspeed Altitude Reporting Facility
EDT Latitude Longitude Course Direction KTS MPH feet Rate Location/Type
09:35PM 39.8667 -75.2833 North 159 183 1,000  Level Philadelphia TRACON
09:36PM 39.8167 -75.3167 207° Southwest 217 250 3,300 2,640 Climbing Philadelphia TRACON
09:37PM 39.7667 -75.3667 218° Southwest 227 261 6,900 3,480 Climbing Philadelphia TRACON
09:38PM 39.7000 -75.3833 191° South 255 293 10,300 2,400 Climbing Philadelphia TRACON
09:39PM 39.7000 -75.2833 90° East 316 364 11,800 840 Climbing Philadelphia TRACON
09:40PM 39.7167 -75.1667 79° East 388 447 12,000 360 Climbing Philadelphia TRACON
09:41PM 39.9252 -74.5667 North  Level FlightAware Approximate
09:43PM 39.7650 -74.8731 78° East 389 448 13,100  Level New York Center
09:44PM 39.7994 -74.7211 74° East 394 453 15,600 2,340 Climbing New York Center
09:45PM 39.8861 -74.6233 41° Northeast 383 441 17,800 2,040 Climbing New York Center
09:46PM 39.9764 -74.5361 37° Northeast 390 449 19,800 2,040 Climbing New York Center
09:47PM 40.0753 -74.4383 37° Northeast 409 471 22,000 1,860 Climbing New York Center
09:48PM 40.1719 -74.3431 37° Northeast 423 487 23,600 1,680 Climbing New York Center
09:49PM 40.2878 -74.3028 15° North 428 493 25,400 1,500 Climbing New York Center
09:50PM 40.4136 -74.2819 North 422 486 26,700 1,560 Climbing New York Center
09:51PM 40.6292 -74.2394 North 468 539 29,900 1,680 Climbing Boston Center
09:53PM 40.7608 -74.2156 North 447 514 31,700 1,500 Climbing Boston Center
09:54PM 40.8800 -74.1914 North 442 509 33,000 600 Climbing Boston Center
09:54PM 41.0056 -74.1675 North 442 509 33,000  Level Boston Center
09:56PM 41.1247 -74.1403 10° North 442 509 33,000  Level Boston Center
09:56PM 41.2481 -74.1158 North 442 509 33,000  Level Boston Center
09:57PM 41.3547 -74.0911 10° North 442 509 33,000  Level Boston Center
09:58PM 41.4800 -74.0667 North 449 517 33,000  Level Boston Center
10:00PM 41.6158 -74.0422 North 455 524 33,000  Level Boston Center
10:00PM 41.7392 -74.0147 North 449 517 33,000 -180 Level Boston Center
10:01PM 41.8458 -73.9953 North 442 509 32,700 -780 Descending Boston Center
10:02PM 41.9753 -73.9703 North 437 503 31,500 -1,500 Descending Boston Center
10:03PM 42.0967 -73.9425 10° North 437 503 29,700 -2,640 Descending Boston Center
10:04PM 42.2200 -73.9175 North 437 503 26,200 -2,280 Descending Boston Center
10:05PM 42.3431 -73.8922 North 442 509 25,200 -840 Descending Boston Center
10:06PM 42.4425 -73.7906 37° Northeast 437 503 24,600 -660 Descending Boston Center
10:07PM 42.4900 -73.6256 69° East 421 484 23,900 -1,080 Descending Boston Center
10:08PM 42.5292 -73.4544 73° East 440 506 22,500 -1,380 Descending Boston Center
10:10PM 42.5661 -73.2969 72° East 468 539 21,100 -1,620 Descending Boston Center
10:10PM 42.6067 -73.1311 72° East 445 512 19,400 -1,080 Descending Boston Center
10:11PM 42.6431 -72.9708 73° East 431 496 19,000 -600 Descending Boston Center
10:13PM 42.6728 -72.8100 76° East 431 496 18,200 -1,200 Descending Boston Center
10:14PM 42.7025 -72.6492 76° East 431 496 16,600 -1,500 Descending Boston Center
10:14PM 42.7233 -72.5164 78° East 426 490 15,300 -1,500 Descending Boston Center
10:15PM 42.7483 -72.3667 77° East 416 479 13,700 -1,680 Descending Boston Center
10:17PM 42.7753 -72.2111 77° East 384 442 12,000 -1,500 Descending Boston Center
10:17PM 42.7958 -72.0892 77° East 362 417 10,800 -1,320 Descending Boston Center
10:18PM 42.8142 -71.9731 78° East 312 359 9,500 -1,500 Descending Boston Center
10:20PM 42.8283 -71.8683 80° East 292 336 7,600 -1,620 Descending Boston Center
10:21PM 42.8256 -71.7436 92° East 276 318 6,000 -1,200 Descending Boston Center
10:22PM 42.7939 -71.6678 120° Southeast 254 292 5,200 -1,440 Descending Boston Center
10:23PM 42.8142 -71.5881 71° East 203 234 3,200 -1,440 Descending Boston Center
10:24PM 42.8511 -71.5481 38° Northeast 178 205 2,300 -960 Descending Boston Center
10:25PM 42.8842 -71.5050 44° Northeast 156 180 1,400 -780 Descending Boston Center
10:26PM 42.9089 -71.4733 43° Northeast 134 154 800 -540 Descending Boston Center
10:27PM 42.9378 -71.4361 43° Northeast 129 148 400 4,020 Descending Boston Center
10:28PM 42.9647 -71.4017 43° Northeast 129 148 9,000 4,260 Climbing Boston Center
10:29PM 42.9892 -71.3644 48° Northeast 129 148 9,000  Level Boston Center
10:30PM 43.0161 -71.3297 43° Northeast 129 148 9,000  Level Boston Center
10:31PM 43.0306 -71.3067 49° Northeast 129 148 9,000  Level Boston Center
10:33PM 42.9328 -71.4358 224° Southwest  Level Estimated